Tropical Cyclones
[Index]
Main Index Home Page Stock Weather Photos Extreme Storms Discussion Storm News and Storm Chasing Reports Tropical Cyclones / Hurricanes / Typhoons Weather Data and Links Wild Fires / Bushfires Weather Observation Techniques Weather Picture Catalogue Tornado Pictures and Reports Stock Video Footage and DVDs for sale
Season 1960-1961 Tropical Cyclone 196061_12 Track Map
Season 1960-1961 Summaries: [BoM-AU] [JTWC-AU] [JTWC-SIO] [JTWC-SPAC] [JTWC-SH]
<<- Previous TC | BoM 1960-1961 Season | Next TC ->>

click for intensity scale information  Lat/long Grid: Show Hide

 Date Labels: Show Hide

Bureau of Meteorology Tropical Cyclone Data

Name: 196061_12
Number: 339 / 196061_12

24 Feb 1961 01:00 UTC to 03 Mar 1961 18:00 UTC

    date/time    lat    long    hPa   cat  kts
1961-02-24 01   11.2   129.2                            
1961-02-25 01   11.7   128.0                            
1961-02-26 01   13.5   124.3    995    1                
1961-02-27 01   16.0   122.6    980    2                
1961-02-27 13   17.2   121.3                            
1961-02-28 01   18.2   119.7    970    3                
1961-02-28 20   19.8   118.9                            
1961-02-28 22   19.9   118.7                            
1961-03-01 01   19.9   118.5    950    4                
1961-03-01 04   20.0   118.2    950    4                
1961-03-01 16   20.3   117.1    950    4                
1961-03-01 20   20.8   116.5    950    4                
1961-03-02 01   21.7   115.7    960    3                
1961-03-02 06   22.3   114.9    964    3                
1961-03-02 16   23.3   114.0    970    3                
1961-03-03 01   25.2   113.8    978    2                
1961-03-03 03   26.0   113.8                            
1961-03-03 05   26.8   113.7                            
1961-03-03 07   27.3   113.7    986    1                
1961-03-03 18   32.0   114.0                            
Winds are 10-min average.

Tropical cyclone tracks developed by Michael Bath using data from the Bureau of Meteorology and Google Maps.


[Australian Severe Weather index] [Copyright Notice] [Email Contacts] [Search This Site] [Privacy Policy]
Document: tropical_cyclone_196061_12.htm Updated: 30 May 2013